• Join FlightAware (Why Join?)
  • Login
  • US Flag 
07:54AM EDT


 

Airport Tracker/Info


-or-


 

Live Flight TrackerFlight Track Log ✈ KAP46 ✈ 23-Jun-2013 ✈ KMSS - KALB

Flight Track Log - Related Links

Times and Time Zones

All times are in EDT time to prevent confusion due to time zone crossing. See the KAP46 flight status page for this flight to view local times or setup timezone preferences in your user account.

Time Position Orientation Groundspeed Altitude Reporting Facility
EDT Latitude Longitude Course Direction KTS MPH feet Rate Location/Type
09:25AM 44.7736 -74.8497 180° South 150 173 5,500  Level Boston Center
09:26AM 44.7303 -74.8361 167° South 140 161 6,200 600 Climbing Boston Center
09:27AM 44.6953 -74.8083 151° Southeast 140 161 6,800 360 Climbing Boston Center
09:28AM 44.7781 -74.8667 180° South  Level FlightAware Approximate
09:28AM 44.6539 -74.7950 167° South 146 168 7,000  Level Boston Center
09:29AM 44.6089 -74.7642 154° Southeast 168 193 7,000  Level Boston Center
09:30AM 44.5656 -74.7419 160° South 173 199 7,000  Level Boston Center
09:31AM 44.5200 -74.7169 159° South 173 199 7,000  Level Boston Center
09:32AM 44.4767 -74.6950 160° South 167 192 7,000  Level Boston Center
09:33AM 44.4336 -74.6672 155° Southeast 167 192 7,000  Level Boston Center
09:34AM 44.3881 -74.6508 166° South 167 192 7,000  Level Boston Center
09:35AM 44.3447 -74.6289 160° South 162 186 7,000  Level Boston Center
09:36AM 44.3014 -74.6042 158° South 167 192 7,000  Level Boston Center
09:37AM 44.2478 -74.5761 159° South 167 192 7,000  Level Boston Center
09:38AM 44.2044 -74.5572 163° South 167 192 7,000  Level Boston Center
09:39AM 44.1631 -74.5325 157° South 167 192 7,000  Level Boston Center
09:40AM 44.1197 -74.5108 160° South 167 192 7,000  Level Boston Center
09:41AM 44.0744 -74.4861 159° South 167 192 7,000  Level Boston Center
09:42AM 44.0372 -74.4675 160° South 167 192 7,000  Level Boston Center
09:43AM 43.9878 -74.4397 158° South 167 192 7,000  Level Boston Center
09:44AM 43.9442 -74.4181 160° South 167 192 7,000  Level Boston Center
09:45AM 43.8967 -74.3936 160° South 167 192 7,100  Climbing Boston Center
09:46AM 43.8556 -74.3692 157° South 167 192 7,100  Level Boston Center
09:47AM 43.8119 -74.3478 161° South 167 192 7,100  Level Boston Center
09:48AM 43.7686 -74.3289 163° South 167 192 7,100  Level Boston Center
09:49AM 43.7253 -74.3047 158° South 167 192 7,100  Level Boston Center
09:50AM 43.6778 -74.2803 160° South 167 192 7,100  Level Boston Center
09:51AM 43.6344 -74.2558 158° South 167 192 7,100  Level Boston Center
09:52AM 43.5908 -74.2347 161° South 167 192 7,100  Level Boston Center
09:53AM 43.5456 -74.2103 159° South 167 192 7,100 -60 Level Boston Center
09:54AM 43.5019 -74.1889 160° South 167 192 7,000 -60 Descending Boston Center
09:55AM 43.4586 -74.1678 161° South 162 186 7,000  Level Boston Center
09:56AM 43.4069 -74.1406 159° South 167 192 7,000  Level Boston Center
09:57AM 43.3614 -74.1164 159° South 167 192 7,000  Level Boston Center
09:58AM 43.3242 -74.0983 161° South 167 192 7,000  Level Boston Center
09:59AM 43.2972 -74.0861 162° South 167 192 7,000 -180 Level Boston Center
09:59AM 43.2600 -74.0653 158° South 168 193 6,800 -300 Descending Boston Center
10:00AM 43.2331 -74.0531 162° South 166 191 6,600 -480 Descending Boston Center
10:01AM 43.1833 -74.0233 156° South 166 191 6,100 -420 Descending Boston Center
10:02AM 43.1461 -74.0025 158° South 177 204 5,800 -540 Descending Boston Center
10:03AM 43.1111 -73.9817 157° South 185 213 5,300 -720 Descending Boston Center
10:03AM 43.0883 -73.9667 154° Southeast 183 211 5,100 -600 Descending Boston Center
10:04AM 43.0636 -73.9519 156° South 188 216 4,700 -600 Descending Boston Center
10:04AM 43.0450 -73.9400 155° Southeast 190 219 4,500 -600 Descending Boston Center
10:05AM 43.0161 -73.9225 156° South 191 220 4,100 -540 Descending Boston Center
10:06AM 42.9686 -73.8872 151° Southeast 194 223 3,700 -420 Descending Boston Center
10:07AM 42.9253 -73.8522 149° Southeast 186 214 3,300 -420 Descending Boston Center
10:08AM 42.8797 -73.8169 150° Southeast 184 212 2,900 -600 Descending Boston Center
10:09AM 42.8319 -73.8075 172° South 168 193 2,200 -840 Descending Boston Center
10:10AM 42.7944 -73.8094 182° South 126 145 1,300 -900 Descending Boston Center
10:11AM 42.7631 -73.8089 179° South 101 116 400 -900 Descending Boston Center
10:13AM 42.7491 -73.8020 170° South  Level Estimated
10:20AM 42.7491 -73.8020 170° South  Level Estimated
10:21AM 42.7491 -73.8020 170° South  Level Estimated